sensor_id;sensor_type;location;lat;lon;timestamp;temperature;humidity
17252;DHT22;8742;51.716;8.790;2023-06-14T00:02:01;17.20;58.90
17252;DHT22;8742;51.716;8.790;2023-06-14T00:04:28;17.20;59.20
17252;DHT22;8742;51.716;8.790;2023-06-14T00:06:55;17.20;58.80
17252;DHT22;8742;51.716;8.790;2023-06-14T00:09:23;17.20;59.00
17252;DHT22;8742;51.716;8.790;2023-06-14T00:11:50;17.20;59.70
17252;DHT22;8742;51.716;8.790;2023-06-14T00:14:18;17.20;58.70
17252;DHT22;8742;51.716;8.790;2023-06-14T00:16:45;17.10;59.40
17252;DHT22;8742;51.716;8.790;2023-06-14T00:19:13;17.00;58.60
17252;DHT22;8742;51.716;8.790;2023-06-14T00:21:41;17.00;59.30
17252;DHT22;8742;51.716;8.790;2023-06-14T00:24:08;16.90;59.50
17252;DHT22;8742;51.716;8.790;2023-06-14T00:26:35;16.90;58.90
17252;DHT22;8742;51.716;8.790;2023-06-14T00:29:02;16.80;59.10
17252;DHT22;8742;51.716;8.790;2023-06-14T00:31:30;16.80;59.60
17252;DHT22;8742;51.716;8.790;2023-06-14T00:33:57;16.70;59.10
17252;DHT22;8742;51.716;8.790;2023-06-14T00:36:24;16.70;59.40
17252;DHT22;8742;51.716;8.790;2023-06-14T00:38:51;16.60;60.30
17252;DHT22;8742;51.716;8.790;2023-06-14T00:41:18;16.60;60.60
17252;DHT22;8742;51.716;8.790;2023-06-14T00:43:45;16.60;60.00
17252;DHT22;8742;51.716;8.790;2023-06-14T00:46:12;16.60;60.90
17252;DHT22;8742;51.716;8.790;2023-06-14T00:48:40;16.70;60.70
17252;DHT22;8742;51.716;8.790;2023-06-14T00:51:07;16.60;61.20
17252;DHT22;8742;51.716;8.790;2023-06-14T00:53:34;16.60;61.40
17252;DHT22;8742;51.716;8.790;2023-06-14T00:56:01;16.60;61.30
17252;DHT22;8742;51.716;8.790;2023-06-14T00:58:29;16.60;61.10
17252;DHT22;8742;51.716;8.790;2023-06-14T01:00:55;16.60;62.10
17252;DHT22;8742;51.716;8.790;2023-06-14T01:03:23;16.60;60.80
17252;DHT22;8742;51.716;8.790;2023-06-14T01:05:58;16.60;60.70
17252;DHT22;8742;51.716;8.790;2023-06-14T01:08:34;16.60;61.80
17252;DHT22;8742;51.716;8.790;2023-06-14T01:11:09;16.60;61.40
17252;DHT22;8742;51.716;8.790;2023-06-14T01:13:39;16.50;61.40
17252;DHT22;8742;51.716;8.790;2023-06-14T01:16:08;16.40;61.70
17252;DHT22;8742;51.716;8.790;2023-06-14T01:18:35;16.30;62.10
17252;DHT22;8742;51.716;8.790;2023-06-14T01:21:04;16.20;63.10
17252;DHT22;8742;51.716;8.790;2023-06-14T01:23:33;16.10;62.90
17252;DHT22;8742;51.716;8.790;2023-06-14T01:26:00;16.00;64.10
17252;DHT22;8742;51.716;8.790;2023-06-14T01:28:29;15.90;63.80
17252;DHT22;8742;51.716;8.790;2023-06-14T01:31:00;15.90;64.00
17252;DHT22;8742;51.716;8.790;2023-06-14T01:33:31;15.80;63.30
17252;DHT22;8742;51.716;8.790;2023-06-14T01:35:59;15.80;63.30
17252;DHT22;8742;51.716;8.790;2023-06-14T01:38:26;15.80;63.10
17252;DHT22;8742;51.716;8.790;2023-06-14T01:40:56;15.80;64.20
17252;DHT22;8742;51.716;8.790;2023-06-14T01:43:25;15.90;63.60
17252;DHT22;8742;51.716;8.790;2023-06-14T01:45:53;15.90;64.40
17252;DHT22;8742;51.716;8.790;2023-06-14T01:48:21;15.90;64.20
17252;DHT22;8742;51.716;8.790;2023-06-14T01:50:48;15.90;64.80
17252;DHT22;8742;51.716;8.790;2023-06-14T01:53:16;15.90;64.00
17252;DHT22;8742;51.716;8.790;2023-06-14T01:55:43;15.90;63.10
17252;DHT22;8742;51.716;8.790;2023-06-14T01:58:15;15.80;63.60
17252;DHT22;8742;51.716;8.790;2023-06-14T02:00:43;15.80;62.70
17252;DHT22;8742;51.716;8.790;2023-06-14T02:03:10;15.70;62.80
17252;DHT22;8742;51.716;8.790;2023-06-14T02:05:38;15.70;63.70
17252;DHT22;8742;51.716;8.790;2023-06-14T02:08:05;15.60;62.90
17252;DHT22;8742;51.716;8.790;2023-06-14T02:10:32;15.60;64.30
17252;DHT22;8742;51.716;8.790;2023-06-14T02:12:59;15.50;64.30
17252;DHT22;8742;51.716;8.790;2023-06-14T02:15:27;15.50;64.20
17252;DHT22;8742;51.716;8.790;2023-06-14T02:17:59;15.40;63.70
17252;DHT22;8742;51.716;8.790;2023-06-14T02:20:27;15.40;63.90
17252;DHT22;8742;51.716;8.790;2023-06-14T02:22:54;15.30;63.00
17252;DHT22;8742;51.716;8.790;2023-06-14T02:25:21;15.30;63.80
17252;DHT22;8742;51.716;8.790;2023-06-14T02:27:47;15.20;63.90
17252;DHT22;8742;51.716;8.790;2023-06-14T02:30:14;15.20;63.20
17252;DHT22;8742;51.716;8.790;2023-06-14T02:32:43;15.10;63.80
17252;DHT22;8742;51.716;8.790;2023-06-14T02:35:10;15.00;64.50
17252;DHT22;8742;51.716;8.790;2023-06-14T02:37:37;15.00;64.00
17252;DHT22;8742;51.716;8.790;2023-06-14T02:40:05;14.90;64.30
17252;DHT22;8742;51.716;8.790;2023-06-14T02:42:32;14.90;65.30
17252;DHT22;8742;51.716;8.790;2023-06-14T02:44:59;14.90;64.70
17252;DHT22;8742;51.716;8.790;2023-06-14T02:47:27;14.80;64.60
17252;DHT22;8742;51.716;8.790;2023-06-14T02:49:55;14.80;65.20
17252;DHT22;8742;51.716;8.790;2023-06-14T02:52:22;14.80;65.00
17252;DHT22;8742;51.716;8.790;2023-06-14T02:54:50;14.70;65.10
17252;DHT22;8742;51.716;8.790;2023-06-14T02:57:17;14.70;65.00
17252;DHT22;8742;51.716;8.790;2023-06-14T02:59:44;14.70;65.20
17252;DHT22;8742;51.716;8.790;2023-06-14T03:02:11;14.60;65.50
17252;DHT22;8742;51.716;8.790;2023-06-14T03:04:37;14.60;65.30
17252;DHT22;8742;51.716;8.790;2023-06-14T03:07:06;14.60;65.70
17252;DHT22;8742;51.716;8.790;2023-06-14T03:09:35;14.50;66.10
17252;DHT22;8742;51.716;8.790;2023-06-14T03:12:02;14.50;66.10
17252;DHT22;8742;51.716;8.790;2023-06-14T03:14:29;14.50;65.80
17252;DHT22;8742;51.716;8.790;2023-06-14T03:16:56;14.50;65.20
17252;DHT22;8742;51.716;8.790;2023-06-14T03:19:24;14.50;65.30
17252;DHT22;8742;51.716;8.790;2023-06-14T03:21:51;14.40;64.60
17252;DHT22;8742;51.716;8.790;2023-06-14T03:24:20;14.40;65.30
17252;DHT22;8742;51.716;8.790;2023-06-14T03:26:47;14.40;64.70
17252;DHT22;8742;51.716;8.790;2023-06-14T03:29:14;14.30;65.40
17252;DHT22;8742;51.716;8.790;2023-06-14T03:31:57;14.30;67.40
17252;DHT22;8742;51.716;8.790;2023-06-14T03:34:24;14.20;66.50
17252;DHT22;8742;51.716;8.790;2023-06-14T03:36:51;14.10;66.10
17252;DHT22;8742;51.716;8.790;2023-06-14T03:39:19;14.00;66.80
17252;DHT22;8742;51.716;8.790;2023-06-14T03:41:46;13.90;66.30
17252;DHT22;8742;51.716;8.790;2023-06-14T03:44:15;13.90;68.90
17252;DHT22;8742;51.716;8.790;2023-06-14T03:46:43;13.80;66.70
17252;DHT22;8742;51.716;8.790;2023-06-14T03:49:10;13.80;66.30
17252;DHT22;8742;51.716;8.790;2023-06-14T03:51:37;13.80;66.40
17252;DHT22;8742;51.716;8.790;2023-06-14T03:54:05;13.80;66.40
17252;DHT22;8742;51.716;8.790;2023-06-14T03:56:33;13.80;68.00
17252;DHT22;8742;51.716;8.790;2023-06-14T03:59:00;13.80;67.00
17252;DHT22;8742;51.716;8.790;2023-06-14T04:01:27;13.90;69.00
17252;DHT22;8742;51.716;8.790;2023-06-14T04:03:56;13.90;70.10
17252;DHT22;8742;51.716;8.790;2023-06-14T04:06:23;13.90;68.40
17252;DHT22;8742;51.716;8.790;2023-06-14T04:08:57;13.90;68.40
17252;DHT22;8742;51.716;8.790;2023-06-14T04:11:30;14.00;69.20
17252;DHT22;8742;51.716;8.790;2023-06-14T04:13:58;14.00;69.70
17252;DHT22;8742;51.716;8.790;2023-06-14T04:16:25;14.00;68.40
17252;DHT22;8742;51.716;8.790;2023-06-14T04:18:53;14.00;70.20
17252;DHT22;8742;51.716;8.790;2023-06-14T04:21:20;14.10;69.30
17252;DHT22;8742;51.716;8.790;2023-06-14T04:23:48;14.10;69.30
17252;DHT22;8742;51.716;8.790;2023-06-14T04:26:18;14.10;70.10
17252;DHT22;8742;51.716;8.790;2023-06-14T04:28:45;14.20;68.80
17252;DHT22;8742;51.716;8.790;2023-06-14T04:31:13;14.20;69.20
17252;DHT22;8742;51.716;8.790;2023-06-14T04:33:41;14.30;69.00
17252;DHT22;8742;51.716;8.790;2023-06-14T04:36:11;14.30;68.20
17252;DHT22;8742;51.716;8.790;2023-06-14T04:38:38;14.40;69.20
17252;DHT22;8742;51.716;8.790;2023-06-14T04:41:05;14.50;68.60
17252;DHT22;8742;51.716;8.790;2023-06-14T04:43:32;14.50;68.40
17252;DHT22;8742;51.716;8.790;2023-06-14T04:46:04;14.60;67.70
17252;DHT22;8742;51.716;8.790;2023-06-14T04:48:37;14.70;70.00
17252;DHT22;8742;51.716;8.790;2023-06-14T04:51:05;14.70;68.70
17252;DHT22;8742;51.716;8.790;2023-06-14T04:53:32;14.80;67.70
17252;DHT22;8742;51.716;8.790;2023-06-14T04:55:59;14.90;68.60
17252;DHT22;8742;51.716;8.790;2023-06-14T04:58:26;14.90;67.70
17252;DHT22;8742;51.716;8.790;2023-06-14T05:00:54;15.00;67.50
17252;DHT22;8742;51.716;8.790;2023-06-14T05:03:21;15.10;67.00
17252;DHT22;8742;51.716;8.790;2023-06-14T05:05:50;15.20;67.20
17252;DHT22;8742;51.716;8.790;2023-06-14T05:08:18;15.30;67.00
17252;DHT22;8742;51.716;8.790;2023-06-14T05:10:45;15.40;68.10
17252;DHT22;8742;51.716;8.790;2023-06-14T05:13:12;15.40;68.40
17252;DHT22;8742;51.716;8.790;2023-06-14T05:15:39;15.50;68.50
17252;DHT22;8742;51.716;8.790;2023-06-14T05:18:06;15.60;68.20
17252;DHT22;8742;51.716;8.790;2023-06-14T05:20:35;15.70;68.00
17252;DHT22;8742;51.716;8.790;2023-06-14T05:23:03;15.80;68.50
17252;DHT22;8742;51.716;8.790;2023-06-14T05:25:30;15.90;68.10
17252;DHT22;8742;51.716;8.790;2023-06-14T05:27:57;15.90;68.00
17252;DHT22;8742;51.716;8.790;2023-06-14T05:30:24;16.00;69.00
17252;DHT22;8742;51.716;8.790;2023-06-14T05:32:51;16.10;69.60
17252;DHT22;8742;51.716;8.790;2023-06-14T05:35:18;16.20;69.60
17252;DHT22;8742;51.716;8.790;2023-06-14T05:37:47;16.30;68.30
17252;DHT22;8742;51.716;8.790;2023-06-14T05:40:15;16.40;69.50
17252;DHT22;8742;51.716;8.790;2023-06-14T05:42:43;16.50;69.80
17252;DHT22;8742;51.716;8.790;2023-06-14T05:45:10;16.50;68.90
17252;DHT22;8742;51.716;8.790;2023-06-14T05:47:37;16.70;68.60
17252;DHT22;8742;51.716;8.790;2023-06-14T05:50:04;16.70;68.30
17252;DHT22;8742;51.716;8.790;2023-06-14T05:52:31;16.80;68.60
17252;DHT22;8742;51.716;8.790;2023-06-14T05:54:59;16.90;68.90
17252;DHT22;8742;51.716;8.790;2023-06-14T05:57:27;17.00;67.90
17252;DHT22;8742;51.716;8.790;2023-06-14T05:59:54;17.00;68.30
17252;DHT22;8742;51.716;8.790;2023-06-14T06:02:21;17.10;68.70
17252;DHT22;8742;51.716;8.790;2023-06-14T06:04:48;17.10;68.00
17252;DHT22;8742;51.716;8.790;2023-06-14T06:07:14;17.20;68.80
17252;DHT22;8742;51.716;8.790;2023-06-14T06:09:41;17.30;68.50
17252;DHT22;8742;51.716;8.790;2023-06-14T06:12:09;17.30;69.20
17252;DHT22;8742;51.716;8.790;2023-06-14T06:14:37;17.30;68.60
17252;DHT22;8742;51.716;8.790;2023-06-14T06:17:04;17.40;69.40
17252;DHT22;8742;51.716;8.790;2023-06-14T06:19:32;17.40;69.50
17252;DHT22;8742;51.716;8.790;2023-06-14T06:21:58;17.50;69.80
17252;DHT22;8742;51.716;8.790;2023-06-14T06:24:25;17.50;68.80
17252;DHT22;8742;51.716;8.790;2023-06-14T06:26:52;17.50;68.90
17252;DHT22;8742;51.716;8.790;2023-06-14T06:29:19;17.50;68.50
17252;DHT22;8742;51.716;8.790;2023-06-14T06:31:48;17.60;68.60
17252;DHT22;8742;51.716;8.790;2023-06-14T06:34:15;17.60;68.00
17252;DHT22;8742;51.716;8.790;2023-06-14T06:36:42;17.70;69.40
17252;DHT22;8742;51.716;8.790;2023-06-14T06:39:08;17.70;69.10
17252;DHT22;8742;51.716;8.790;2023-06-14T06:41:36;17.70;69.00
17252;DHT22;8742;51.716;8.790;2023-06-14T06:44:05;17.80;68.90
17252;DHT22;8742;51.716;8.790;2023-06-14T06:46:32;17.80;69.50
17252;DHT22;8742;51.716;8.790;2023-06-14T06:49:00;17.80;68.50
17252;DHT22;8742;51.716;8.790;2023-06-14T06:51:27;17.90;68.80
17252;DHT22;8742;51.716;8.790;2023-06-14T06:53:54;17.90;69.40
17252;DHT22;8742;51.716;8.790;2023-06-14T06:56:21;18.00;69.40
17252;DHT22;8742;51.716;8.790;2023-06-14T06:58:48;18.00;68.20
17252;DHT22;8742;51.716;8.790;2023-06-14T07:01:15;18.20;69.60
17252;DHT22;8742;51.716;8.790;2023-06-14T07:03:42;18.20;68.70
17252;DHT22;8742;51.716;8.790;2023-06-14T07:06:11;18.30;68.20
17252;DHT22;8742;51.716;8.790;2023-06-14T07:08:38;18.40;68.50
17252;DHT22;8742;51.716;8.790;2023-06-14T07:11:05;18.50;68.50
17252;DHT22;8742;51.716;8.790;2023-06-14T07:13:32;18.50;68.60
17252;DHT22;8742;51.716;8.790;2023-06-14T07:15:59;18.60;68.20
17252;DHT22;8742;51.716;8.790;2023-06-14T07:18:26;18.70;68.10
17252;DHT22;8742;51.716;8.790;2023-06-14T07:20:53;18.70;67.70
17252;DHT22;8742;51.716;8.790;2023-06-14T07:23:22;18.70;67.90
17252;DHT22;8742;51.716;8.790;2023-06-14T07:25:49;18.80;67.20
17252;DHT22;8742;51.716;8.790;2023-06-14T07:28:16;18.90;67.80
17252;DHT22;8742;51.716;8.790;2023-06-14T07:30:43;18.90;67.10
17252;DHT22;8742;51.716;8.790;2023-06-14T07:33:10;19.00;67.10
17252;DHT22;8742;51.716;8.790;2023-06-14T07:35:37;19.10;67.40
17252;DHT22;8742;51.716;8.790;2023-06-14T07:38:04;19.20;67.40
17252;DHT22;8742;51.716;8.790;2023-06-14T07:40:33;19.30;66.90
17252;DHT22;8742;51.716;8.790;2023-06-14T07:42:59;19.50;67.90
17252;DHT22;8742;51.716;8.790;2023-06-14T07:45:27;19.70;67.00
17252;DHT22;8742;51.716;8.790;2023-06-14T07:47:54;19.80;67.00
17252;DHT22;8742;51.716;8.790;2023-06-14T07:50:22;19.90;66.90
17252;DHT22;8742;51.716;8.790;2023-06-14T07:52:48;20.20;67.20
17252;DHT22;8742;51.716;8.790;2023-06-14T07:55:15;20.40;66.80
17252;DHT22;8742;51.716;8.790;2023-06-14T07:57:44;20.70;66.40
17252;DHT22;8742;51.716;8.790;2023-06-14T08:00:12;21.20;65.20
17252;DHT22;8742;51.716;8.790;2023-06-14T08:02:41;21.60;64.80
17252;DHT22;8742;51.716;8.790;2023-06-14T08:05:09;22.00;63.80
17252;DHT22;8742;51.716;8.790;2023-06-14T08:07:37;22.60;63.00
17252;DHT22;8742;51.716;8.790;2023-06-14T08:10:04;23.30;61.70
17252;DHT22;8742;51.716;8.790;2023-06-14T08:12:31;23.80;60.60
17252;DHT22;8742;51.716;8.790;2023-06-14T08:14:59;24.20;59.60
17252;DHT22;8742;51.716;8.790;2023-06-14T08:17:26;24.10;59.00
17252;DHT22;8742;51.716;8.790;2023-06-14T08:19:53;24.20;59.40
17252;DHT22;8742;51.716;8.790;2023-06-14T08:22:22;24.60;59.80
17252;DHT22;8742;51.716;8.790;2023-06-14T08:24:50;25.00;58.80
17252;DHT22;8742;51.716;8.790;2023-06-14T08:27:19;25.50;58.10
17252;DHT22;8742;51.716;8.790;2023-06-14T08:29:46;25.70;57.50
17252;DHT22;8742;51.716;8.790;2023-06-14T08:32:14;25.90;57.20
17252;DHT22;8742;51.716;8.790;2023-06-14T08:34:41;26.10;57.30
17252;DHT22;8742;51.716;8.790;2023-06-14T08:37:08;26.20;57.10
17252;DHT22;8742;51.716;8.790;2023-06-14T08:39:35;26.30;56.90
17252;DHT22;8742;51.716;8.790;2023-06-14T08:42:02;26.40;56.90
17252;DHT22;8742;51.716;8.790;2023-06-14T08:44:29;26.60;56.60
17252;DHT22;8742;51.716;8.790;2023-06-14T08:46:56;26.70;56.30
17252;DHT22;8742;51.716;8.790;2023-06-14T08:49:25;26.80;55.60
17252;DHT22;8742;51.716;8.790;2023-06-14T08:51:57;26.70;54.90
17252;DHT22;8742;51.716;8.790;2023-06-14T08:54:25;26.60;55.50
17252;DHT22;8742;51.716;8.790;2023-06-14T08:56:55;26.80;55.70
17252;DHT22;8742;51.716;8.790;2023-06-14T08:59:24;26.90;54.80
17252;DHT22;8742;51.716;8.790;2023-06-14T09:01:52;27.00;54.60
17252;DHT22;8742;51.716;8.790;2023-06-14T09:04:20;27.20;54.30
17252;DHT22;8742;51.716;8.790;2023-06-14T09:06:48;27.40;54.60
17252;DHT22;8742;51.716;8.790;2023-06-14T09:09:19;27.20;54.30
17252;DHT22;8742;51.716;8.790;2023-06-14T09:11:46;27.20;54.60
17252;DHT22;8742;51.716;8.790;2023-06-14T09:14:13;27.30;55.10
17252;DHT22;8742;51.716;8.790;2023-06-14T09:16:40;27.00;53.90
17252;DHT22;8742;51.716;8.790;2023-06-14T09:19:07;26.80;54.80
17252;DHT22;8742;51.716;8.790;2023-06-14T09:21:35;26.70;54.40
17252;DHT22;8742;51.716;8.790;2023-06-14T09:24:05;26.20;54.10
17252;DHT22;8742;51.716;8.790;2023-06-14T09:26:32;26.10;54.50
17252;DHT22;8742;51.716;8.790;2023-06-14T09:28:58;26.30;54.50
17252;DHT22;8742;51.716;8.790;2023-06-14T09:31:25;26.50;54.50
17252;DHT22;8742;51.716;8.790;2023-06-14T09:33:57;26.80;54.20
17252;DHT22;8742;51.716;8.790;2023-06-14T09:36:24;26.90;54.60
17252;DHT22;8742;51.716;8.790;2023-06-14T09:38:52;26.90;55.00
17252;DHT22;8742;51.716;8.790;2023-06-14T09:41:21;27.10;54.40
17252;DHT22;8742;51.716;8.790;2023-06-14T09:43:57;26.90;53.80
17252;DHT22;8742;51.716;8.790;2023-06-14T09:46:26;27.00;54.60
17252;DHT22;8742;51.716;8.790;2023-06-14T09:48:53;27.30;53.90
17252;DHT22;8742;51.716;8.790;2023-06-14T09:51:22;27.40;53.70
17252;DHT22;8742;51.716;8.790;2023-06-14T09:53:50;27.40;53.90
17252;DHT22;8742;51.716;8.790;2023-06-14T09:56:21;27.30;53.60
17252;DHT22;8742;51.716;8.790;2023-06-14T09:58:50;27.00;53.60
17252;DHT22;8742;51.716;8.790;2023-06-14T10:01:21;26.40;54.10
17252;DHT22;8742;51.716;8.790;2023-06-14T10:03:51;26.50;54.90
17252;DHT22;8742;51.716;8.790;2023-06-14T10:06:18;26.90;54.50
17252;DHT22;8742;51.716;8.790;2023-06-14T10:08:48;27.20;53.70
17252;DHT22;8742;51.716;8.790;2023-06-14T10:11:16;27.50;53.60
17252;DHT22;8742;51.716;8.790;2023-06-14T10:13:45;27.40;53.70
17252;DHT22;8742;51.716;8.790;2023-06-14T10:16:16;27.50;53.20
17252;DHT22;8742;51.716;8.790;2023-06-14T10:18:50;27.70;53.00
17252;DHT22;8742;51.716;8.790;2023-06-14T10:21:22;27.60;53.20
17252;DHT22;8742;51.716;8.790;2023-06-14T10:23:51;27.50;53.60
17252;DHT22;8742;51.716;8.790;2023-06-14T10:26:23;27.50;53.70
17252;DHT22;8742;51.716;8.790;2023-06-14T10:28:59;27.40;53.40
17252;DHT22;8742;51.716;8.790;2023-06-14T10:31:43;27.10;52.70
17252;DHT22;8742;51.716;8.790;2023-06-14T10:34:11;26.80;53.10
17252;DHT22;8742;51.716;8.790;2023-06-14T10:36:41;26.60;53.70
17252;DHT22;8742;51.716;8.790;2023-06-14T10:39:14;26.60;53.40
17252;DHT22;8742;51.716;8.790;2023-06-14T10:41:42;26.60;53.10
17252;DHT22;8742;51.716;8.790;2023-06-14T10:44:49;26.70;53.10
17252;DHT22;8742;51.716;8.790;2023-06-14T10:47:27;27.00;54.00
17252;DHT22;8742;51.716;8.790;2023-06-14T10:49:55;27.40;53.50
17252;DHT22;8742;51.716;8.790;2023-06-14T10:52:27;27.80;53.10
17252;DHT22;8742;51.716;8.790;2023-06-14T10:55:06;28.20;52.60
17252;DHT22;8742;51.716;8.790;2023-06-14T10:57:35;28.70;52.60
17252;DHT22;8742;51.716;8.790;2023-06-14T11:00:05;29.10;52.70
17252;DHT22;8742;51.716;8.790;2023-06-14T11:03:11;29.50;52.50
17252;DHT22;8742;51.716;8.790;2023-06-14T11:05:49;29.90;51.40
17252;DHT22;8742;51.716;8.790;2023-06-14T11:08:47;29.70;51.30
17252;DHT22;8742;51.716;8.790;2023-06-14T11:11:18;29.90;50.70
17252;DHT22;8742;51.716;8.790;2023-06-14T11:13:47;30.10;50.30
17252;DHT22;8742;51.716;8.790;2023-06-14T11:16:17;29.90;50.50
17252;DHT22;8742;51.716;8.790;2023-06-14T11:18:44;29.40;50.90
17252;DHT22;8742;51.716;8.790;2023-06-14T11:21:15;28.80;51.30
17252;DHT22;8742;51.716;8.790;2023-06-14T11:23:41;28.30;51.90
17252;DHT22;8742;51.716;8.790;2023-06-14T11:26:08;28.00;52.40
17252;DHT22;8742;51.716;8.790;2023-06-14T11:28:39;28.30;52.70
17252;DHT22;8742;51.716;8.790;2023-06-14T11:31:06;28.30;51.70
17252;DHT22;8742;51.716;8.790;2023-06-14T11:33:35;27.90;52.00
17252;DHT22;8742;51.716;8.790;2023-06-14T11:36:02;27.50;52.40
17252;DHT22;8742;51.716;8.790;2023-06-14T11:38:30;27.30;52.80
17252;DHT22;8742;51.716;8.790;2023-06-14T11:40:59;27.30;52.90
17252;DHT22;8742;51.716;8.790;2023-06-14T11:43:26;26.90;52.60
17252;DHT22;8742;51.716;8.790;2023-06-14T11:45:54;26.60;53.40
17252;DHT22;8742;51.716;8.790;2023-06-14T11:48:21;26.80;53.90
17252;DHT22;8742;51.716;8.790;2023-06-14T11:50:51;27.30;53.50
17252;DHT22;8742;51.716;8.790;2023-06-14T11:53:18;28.00;53.30
17252;DHT22;8742;51.716;8.790;2023-06-14T11:55:45;28.30;52.90
17252;DHT22;8742;51.716;8.790;2023-06-14T11:58:13;28.70;52.80
17252;DHT22;8742;51.716;8.790;2023-06-14T12:00:40;28.90;52.00
17252;DHT22;8742;51.716;8.790;2023-06-14T12:03:07;29.00;51.80
17252;DHT22;8742;51.716;8.790;2023-06-14T12:05:34;29.20;51.80
17252;DHT22;8742;51.716;8.790;2023-06-14T12:08:04;29.70;51.80
17252;DHT22;8742;51.716;8.790;2023-06-14T12:10:40;30.00;51.00
17252;DHT22;8742;51.716;8.790;2023-06-14T12:13:08;30.20;50.60
17252;DHT22;8742;51.716;8.790;2023-06-14T12:15:35;30.40;50.40
17252;DHT22;8742;51.716;8.790;2023-06-14T12:18:05;30.40;49.40
17252;DHT22;8742;51.716;8.790;2023-06-14T12:20:33;30.20;50.00
17252;DHT22;8742;51.716;8.790;2023-06-14T12:23:04;30.50;50.70
17252;DHT22;8742;51.716;8.790;2023-06-14T12:25:33;30.60;50.50
17252;DHT22;8742;51.716;8.790;2023-06-14T12:28:05;30.40;49.50
17252;DHT22;8742;51.716;8.790;2023-06-14T12:30:33;30.20;50.10
17252;DHT22;8742;51.716;8.790;2023-06-14T12:33:00;30.10;50.90
17252;DHT22;8742;51.716;8.790;2023-06-14T12:35:27;30.30;51.20
17252;DHT22;8742;51.716;8.790;2023-06-14T12:37:54;30.70;51.00
17252;DHT22;8742;51.716;8.790;2023-06-14T12:40:23;30.80;50.10
17252;DHT22;8742;51.716;8.790;2023-06-14T12:42:50;30.40;49.90
17252;DHT22;8742;51.716;8.790;2023-06-14T12:45:17;29.80;49.90
17252;DHT22;8742;51.716;8.790;2023-06-14T12:47:44;29.30;50.40
17252;DHT22;8742;51.716;8.790;2023-06-14T12:50:11;29.20;51.10
17252;DHT22;8742;51.716;8.790;2023-06-14T12:52:37;29.50;51.30
17252;DHT22;8742;51.716;8.790;2023-06-14T12:55:05;30.10;50.90
17252;DHT22;8742;51.716;8.790;2023-06-14T12:57:33;30.60;50.30
17252;DHT22;8742;51.716;8.790;2023-06-14T13:00:03;31.10;50.40
17252;DHT22;8742;51.716;8.790;2023-06-14T13:02:30;31.40;49.00
17252;DHT22;8742;51.716;8.790;2023-06-14T13:04:56;31.70;49.00
17252;DHT22;8742;51.716;8.790;2023-06-14T13:07:24;32.00;47.90
17252;DHT22;8742;51.716;8.790;2023-06-14T13:09:51;31.90;48.10
17252;DHT22;8742;51.716;8.790;2023-06-14T13:12:18;31.60;48.60
17252;DHT22;8742;51.716;8.790;2023-06-14T13:14:46;31.50;49.30
17252;DHT22;8742;51.716;8.790;2023-06-14T13:17:13;31.80;48.80
17252;DHT22;8742;51.716;8.790;2023-06-14T13:19:40;32.00;48.50
17252;DHT22;8742;51.716;8.790;2023-06-14T13:22:07;31.60;48.40
17252;DHT22;8742;51.716;8.790;2023-06-14T13:24:34;31.30;48.50
17252;DHT22;8742;51.716;8.790;2023-06-14T13:27:02;30.80;48.20
17252;DHT22;8742;51.716;8.790;2023-06-14T13:29:29;30.20;49.00
17252;DHT22;8742;51.716;8.790;2023-06-14T13:31:57;29.70;49.50
17252;DHT22;8742;51.716;8.790;2023-06-14T13:34:24;29.50;49.70
17252;DHT22;8742;51.716;8.790;2023-06-14T13:36:51;29.40;49.90
17252;DHT22;8742;51.716;8.790;2023-06-14T13:39:19;29.40;50.40
17252;DHT22;8742;51.716;8.790;2023-06-14T13:41:46;29.30;50.10
17252;DHT22;8742;51.716;8.790;2023-06-14T13:44:12;29.10;50.00
17252;DHT22;8742;51.716;8.790;2023-06-14T13:46:41;28.90;50.20
17252;DHT22;8742;51.716;8.790;2023-06-14T13:49:10;28.90;50.10
17252;DHT22;8742;51.716;8.790;2023-06-14T13:51:38;28.80;50.70
17252;DHT22;8742;51.716;8.790;2023-06-14T13:54:05;29.30;50.30
17252;DHT22;8742;51.716;8.790;2023-06-14T13:56:31;29.80;50.20
17252;DHT22;8742;51.716;8.790;2023-06-14T13:58:58;30.20;50.40
17252;DHT22;8742;51.716;8.790;2023-06-14T14:01:26;30.30;50.20
17252;DHT22;8742;51.716;8.790;2023-06-14T14:03:54;30.30;50.00
17252;DHT22;8742;51.716;8.790;2023-06-14T14:06:22;30.40;50.20
17252;DHT22;8742;51.716;8.790;2023-06-14T14:08:49;30.50;49.60
17252;DHT22;8742;51.716;8.790;2023-06-14T14:11:16;30.30;49.80
17252;DHT22;8742;51.716;8.790;2023-06-14T14:13:43;30.80;48.90
17252;DHT22;8742;51.716;8.790;2023-06-14T14:16:10;31.00;48.70
17252;DHT22;8742;51.716;8.790;2023-06-14T14:18:37;31.80;48.10
17252;DHT22;8742;51.716;8.790;2023-06-14T14:21:04;32.70;47.50
17252;DHT22;8742;51.716;8.790;2023-06-14T14:23:32;33.70;46.50
17252;DHT22;8742;51.716;8.790;2023-06-14T14:25:59;34.60;45.50
17252;DHT22;8742;51.716;8.790;2023-06-14T14:28:29;35.30;44.70
17252;DHT22;8742;51.716;8.790;2023-06-14T14:30:56;35.70;44.50
17252;DHT22;8742;51.716;8.790;2023-06-14T14:33:22;35.80;45.20
17252;DHT22;8742;51.716;8.790;2023-06-14T14:35:49;35.20;45.40
17252;DHT22;8742;51.716;8.790;2023-06-14T14:38:16;34.10;46.10
17252;DHT22;8742;51.716;8.790;2023-06-14T14:40:45;32.90;46.80
17252;DHT22;8742;51.716;8.790;2023-06-14T14:43:12;31.80;47.60
17252;DHT22;8742;51.716;8.790;2023-06-14T14:45:38;32.40;47.50
17252;DHT22;8742;51.716;8.790;2023-06-14T14:48:05;33.30;46.60
17252;DHT22;8742;51.716;8.790;2023-06-14T14:50:32;34.50;45.90
17252;DHT22;8742;51.716;8.790;2023-06-14T14:52:59;35.00;45.20
17252;DHT22;8742;51.716;8.790;2023-06-14T14:55:26;34.40;45.60
17252;DHT22;8742;51.716;8.790;2023-06-14T14:57:54;33.50;45.40
17252;DHT22;8742;51.716;8.790;2023-06-14T15:00:21;32.40;46.60
17252;DHT22;8742;51.716;8.790;2023-06-14T15:02:48;32.70;46.70
17252;DHT22;8742;51.716;8.790;2023-06-14T15:05:15;33.50;46.20
17252;DHT22;8742;51.716;8.790;2023-06-14T15:07:42;34.40;45.70
17252;DHT22;8742;51.716;8.790;2023-06-14T15:10:10;35.10;45.60
17252;DHT22;8742;51.716;8.790;2023-06-14T15:12:37;35.80;44.50
17252;DHT22;8742;51.716;8.790;2023-06-14T15:15:06;36.20;44.00
17252;DHT22;8742;51.716;8.790;2023-06-14T15:17:34;36.50;43.50
17252;DHT22;8742;51.716;8.790;2023-06-14T15:20:01;36.70;43.70
17252;DHT22;8742;51.716;8.790;2023-06-14T15:22:28;37.00;43.90
17252;DHT22;8742;51.716;8.790;2023-06-14T15:24:55;37.30;43.40
17252;DHT22;8742;51.716;8.790;2023-06-14T15:27:22;37.80;43.10
17252;DHT22;8742;51.716;8.790;2023-06-14T15:29:50;37.80;43.20
17252;DHT22;8742;51.716;8.790;2023-06-14T15:32:19;37.10;44.10
17252;DHT22;8742;51.716;8.790;2023-06-14T15:34:46;36.10;44.00
17252;DHT22;8742;51.716;8.790;2023-06-14T15:37:13;35.50;44.60
17252;DHT22;8742;51.716;8.790;2023-06-14T15:39:40;34.70;45.40
17252;DHT22;8742;51.716;8.790;2023-06-14T15:42:07;34.50;45.10
17252;DHT22;8742;51.716;8.790;2023-06-14T15:44:34;34.80;45.50
17252;DHT22;8742;51.716;8.790;2023-06-14T15:47:02;35.20;44.90
17252;DHT22;8742;51.716;8.790;2023-06-14T15:49:30;34.50;44.70
17252;DHT22;8742;51.716;8.790;2023-06-14T15:51:57;33.40;45.60